Time;durP1;ratioP1;P1;durP2;ratioP2;P2;SDS_P1;SDS_P2;PMS_P1;PMS_P2;Temp;Humidity;BMP_temperature;BMP_pressure;BME280_temperature;BME280_humidity;BME280_pressure;Samples;Min_cycle;Max_cycle;Signal;HPM_P1;HPM_P2
2021/12/26 00:01:21;;;;;;;5.25;1.92;;;-1.90;99.90;;;;;;4974130;28;20030;-68
2021/12/26 00:03:47;;;;;;;5.85;2.10;;;-1.90;99.90;;;;;;4972967;28;20027;-66
2021/12/26 00:06:18;;;;;;;2.75;1.65;;;-1.90;99.90;;;;;;4974171;28;20082;-67
2021/12/26 00:08:45;;;;;;;3.25;1.65;;;-1.90;99.90;;;;;;4974032;28;20085;-66
2021/12/26 00:11:11;;;;;;;5.07;1.60;;;-1.90;99.90;;;;;;4973179;28;20050;-66
2021/12/26 00:13:37;;;;;;;3.78;1.77;;;-1.90;99.90;;;;;;4970005;28;20031;-66
2021/12/26 00:16:05;;;;;;;2.17;1.20;;;-1.90;99.90;;;;;;4953322;29;20023;-66
2021/12/26 00:18:31;;;;;;;1.75;1.27;;;-1.90;99.90;;;;;;4953783;29;20031;-66
2021/12/26 00:20:56;;;;;;;6.45;1.80;;;-1.90;99.90;;;;;;4936357;29;20031;-67
2021/12/26 00:23:22;;;;;;;4.90;1.70;;;-1.90;99.90;;;;;;4953681;29;20058;-67
2021/12/26 00:25:48;;;;;;;2.85;1.48;;;-1.90;99.90;;;;;;4953659;29;20039;-66
2021/12/26 00:28:15;;;;;;;4.70;1.80;;;-2.00;99.90;;;;;;4953362;29;20031;-65
2021/12/26 00:30:41;;;;;;;2.10;1.50;;;-2.00;99.90;;;;;;4935677;29;20030;-65
2021/12/26 00:33:07;;;;;;;4.35;1.70;;;-2.00;99.90;;;;;;4953368;29;20034;-66
2021/12/26 00:35:32;;;;;;;4.85;1.67;;;-2.00;99.90;;;;;;4953314;28;20034;-66
2021/12/26 00:37:58;;;;;;;4.57;1.63;;;-2.00;99.90;;;;;;4953414;29;20391;-67
2021/12/26 00:40:27;;;;;;;2.17;1.48;;;-2.00;99.90;;;;;;4953462;29;20031;-66
2021/12/26 00:42:54;;;;;;;5.63;1.45;;;-1.90;99.90;;;;;;4953088;29;20067;-65
2021/12/26 00:45:20;;;;;;;4.05;1.58;;;-1.90;99.90;;;;;;4951109;29;20051;-66
2021/12/26 00:47:46;;;;;;;4.47;1.60;;;-1.90;99.90;;;;;;4954655;29;20081;-67
2021/12/26 00:50:15;;;;;;;4.03;1.80;;;-1.90;99.90;;;;;;4954745;29;20496;-67
2021/12/26 00:52:41;;;;;;;3.35;1.67;;;-2.00;99.90;;;;;;4953948;29;20062;-68
2021/12/26 00:55:10;;;;;;;1.52;1.10;;;-2.00;99.90;;;;;;4953167;29;20066;-66
2021/12/26 00:57:36;;;;;;;3.88;1.70;;;-1.90;99.90;;;;;;4954074;29;20031;-67
2021/12/26 01:00:10;;;;;;;3.72;1.77;;;-1.90;99.90;;;;;;4952903;29;20110;-67
2021/12/26 01:02:35;;;;;;;3.97;1.80;;;-1.90;99.90;;;;;;4954726;29;20459;-66
2021/12/26 01:05:03;;;;;;;6.25;2.42;;;-1.90;99.90;;;;;;4954258;29;20042;-66
2021/12/26 01:10:00;;;;;;;6.82;2.25;;;-1.90;99.90;;;;;;4954583;29;20027;-67
2021/12/26 01:12:26;;;;;;;4.35;1.80;;;-2.00;99.90;;;;;;4953898;29;20039;-67
2021/12/26 01:14:58;;;;;;;5.22;1.83;;;-2.00;99.90;;;;;;4953034;29;20039;-66
2021/12/26 01:17:25;;;;;;;6.70;1.88;;;-2.00;99.90;;;;;;4953484;29;20400;-67
2021/12/26 01:19:53;;;;;;;4.32;2.03;;;-2.00;99.90;;;;;;4954271;29;20420;-65
2021/12/26 01:22:21;;;;;;;5.28;1.75;;;-2.00;99.90;;;;;;4954188;29;20023;-66
2021/12/26 01:24:48;;;;;;;3.53;1.90;;;-2.00;99.90;;;;;;4954140;29;20030;-67
2021/12/26 01:27:15;;;;;;;3.08;1.48;;;-2.00;99.90;;;;;;4953893;29;20047;-68
2021/12/26 01:29:40;;;;;;;5.00;1.70;;;-2.00;99.90;;;;;;4949984;29;20466;-67
2021/12/26 01:32:07;;;;;;;3.95;1.80;;;-2.00;99.90;;;;;;4953665;29;20098;-66
2021/12/26 01:34:33;;;;;;;6.32;2.28;;;-2.00;99.90;;;;;;4953834;29;20038;-67
2021/12/26 01:36:58;;;;;;;5.35;1.50;;;-2.00;99.90;;;;;;4954560;29;20031;-66
2021/12/26 01:39:25;;;;;;;3.33;1.67;;;-2.00;99.90;;;;;;4953920;29;20035;-68
2021/12/26 01:41:51;;;;;;;6.97;1.85;;;-2.00;99.90;;;;;;4953715;29;20083;-67
2021/12/26 01:44:18;;;;;;;2.60;1.70;;;-2.00;99.90;;;;;;4953216;29;20031;-65
2021/12/26 01:46:49;;;;;;;4.20;1.52;;;-2.00;99.90;;;;;;4953488;29;20031;-68
2021/12/26 01:49:20;;;;;;;2.33;1.35;;;-2.00;99.90;;;;;;4954500;29;20030;-67
2021/12/26 01:51:47;;;;;;;5.40;2.08;;;-2.10;99.90;;;;;;4957521;29;20066;-67
2021/12/26 01:54:32;;;;;;;5.85;1.92;;;-2.10;99.90;;;;;;4956758;29;20024;-66
2021/12/26 01:56:59;;;;;;;6.95;2.50;;;-2.10;99.90;;;;;;4938499;29;20090;-68
2021/12/26 01:59:26;;;;;;;4.55;2.00;;;-2.10;99.90;;;;;;4956621;29;20526;-66
2021/12/26 02:01:54;;;;;;;4.82;2.00;;;-2.10;99.90;;;;;;4957216;29;20033;-67
2021/12/26 02:04:19;;;;;;;3.67;2.03;;;-2.10;99.90;;;;;;4956426;29;20435;-65
2021/12/26 02:06:45;;;;;;;3.95;1.90;;;-2.10;99.90;;;;;;4956809;29;20069;-67
2021/12/26 02:09:12;;;;;;;6.70;1.90;;;-2.10;99.90;;;;;;4956785;29;20035;-65
2021/12/26 02:11:39;;;;;;;5.50;1.90;;;-2.10;99.90;;;;;;4956745;29;20029;-67
2021/12/26 02:14:04;;;;;;;7.25;2.00;;;-2.10;99.90;;;;;;4956793;29;20034;-67
2021/12/26 02:16:30;;;;;;;3.05;1.60;;;-2.10;99.90;;;;;;4956570;29;20031;-67
2021/12/26 02:18:56;;;;;;;3.67;1.70;;;-2.10;99.90;;;;;;4956591;29;20061;-66
2021/12/26 02:24:03;;;;;;;5.78;1.98;;;-2.20;99.90;;;;;;4955413;29;20031;-66
2021/12/26 02:29:13;;;;;;;4.70;1.80;;;-2.10;99.90;;;;;;4956504;29;20466;-66
2021/12/26 02:31:38;;;;;;;3.97;2.08;;;-2.20;99.90;;;;;;4956721;29;20027;-66
2021/12/26 02:34:04;;;;;;;3.97;1.70;;;-2.10;99.90;;;;;;4956947;29;20399;-67
2021/12/26 02:36:30;;;;;;;3.17;1.70;;;-2.10;99.90;;;;;;4956843;29;20093;-68
2021/12/26 02:38:55;;;;;;;3.40;1.35;;;-2.10;99.90;;;;;;4956869;29;20023;-66
2021/12/26 02:41:21;;;;;;;3.15;1.88;;;-2.10;99.90;;;;;;4956810;29;20023;-66
2021/12/26 02:43:47;;;;;;;6.18;1.92;;;-2.10;99.90;;;;;;4956771;29;20038;-66
2021/12/26 02:46:13;;;;;;;2.60;1.35;;;-2.10;99.90;;;;;;4956414;29;20043;-66
2021/12/26 02:48:39;;;;;;;3.28;1.30;;;-2.10;99.90;;;;;;4956610;29;20039;-67
2021/12/26 02:51:06;;;;;;;4.65;1.75;;;-2.10;99.90;;;;;;4956436;29;20046;-66
2021/12/26 02:53:32;;;;;;;5.00;2.00;;;-2.10;99.90;;;;;;4956279;29;20042;-67
2021/12/26 02:55:59;;;;;;;3.95;1.60;;;-2.10;99.90;;;;;;4956263;29;20031;-67
2021/12/26 02:58:25;;;;;;;4.05;1.88;;;-2.10;99.90;;;;;;4956103;29;20037;-68
2021/12/26 03:01:05;;;;;;;5.85;2.10;;;-2.10;99.90;;;;;;4956252;28;20055;-67
2021/12/26 03:03:30;;;;;;;5.07;1.92;;;-2.20;99.90;;;;;;4956777;29;20074;-67
2021/12/26 03:06:02;;;;;;;4.75;1.90;;;-2.10;99.90;;;;;;4954852;29;20051;-68
2021/12/26 03:08:27;;;;;;;4.43;1.88;;;-2.20;99.90;;;;;;4956188;29;20078;-65
2021/12/26 03:10:54;;;;;;;3.70;1.55;;;-2.10;99.90;;;;;;4956050;29;20043;-65
2021/12/26 03:13:21;;;;;;;5.32;1.90;;;-2.20;99.90;;;;;;4955744;29;20024;-66
2021/12/26 03:15:47;;;;;;;2.28;1.63;;;-2.20;99.90;;;;;;4955948;29;20446;-65
2021/12/26 03:18:12;;;;;;;2.97;1.55;;;-2.10;99.90;;;;;;4956081;29;20507;-67
2021/12/26 03:20:42;;;;;;;6.88;2.13;;;-2.10;99.90;;;;;;4956027;29;20033;-67
2021/12/26 03:23:12;;;;;;;3.78;1.88;;;-2.10;99.90;;;;;;4955743;29;20531;-67
2021/12/26 03:25:38;;;;;;;4.45;1.60;;;-2.10;99.90;;;;;;4955744;29;20031;-67
2021/12/26 03:28:06;;;;;;;4.38;2.13;;;-2.10;99.90;;;;;;4955879;29;20042;-66
2021/12/26 03:30:33;;;;;;;5.05;2.05;;;-2.10;99.90;;;;;;4955841;29;20031;-66
2021/12/26 03:33:00;;;;;;;3.17;1.98;;;-2.10;99.90;;;;;;4955535;29;20142;-65
2021/12/26 03:35:28;;;;;;;4.82;1.60;;;-2.10;99.90;;;;;;4955763;29;20059;-67
2021/12/26 03:37:55;;;;;;;6.65;2.00;;;-2.00;99.90;;;;;;4955591;29;20027;-67
2021/12/26 03:40:20;;;;;;;3.97;1.95;;;-2.00;99.90;;;;;;4955203;29;20144;-67
2021/12/26 03:42:46;;;;;;;5.55;1.70;;;-2.00;99.90;;;;;;4955739;29;20071;-68
2021/12/26 03:45:12;;;;;;;5.55;2.08;;;-2.00;99.90;;;;;;4955500;29;20027;-68
2021/12/26 03:47:38;;;;;;;4.47;1.83;;;-2.00;99.90;;;;;;4955444;29;20190;-67
2021/12/26 03:50:07;;;;;;;3.08;1.98;;;-2.00;99.90;;;;;;4955412;29;20054;-67
2021/12/26 03:52:32;;;;;;;4.53;1.88;;;-2.00;99.90;;;;;;4955231;29;20031;-66
2021/12/26 03:54:58;;;;;;;4.15;1.98;;;-2.00;99.90;;;;;;4954924;29;20035;-66
2021/12/26 03:57:24;;;;;;;6.10;2.08;;;-2.00;99.90;;;;;;4955388;29;20065;-68
2021/12/26 03:59:49;;;;;;;4.03;2.15;;;-2.00;99.90;;;;;;4954841;29;20133;-65
2021/12/26 04:02:15;;;;;;;3.03;1.75;;;-2.00;99.90;;;;;;4955349;29;20034;-66
2021/12/26 04:04:42;;;;;;;7.10;1.95;;;-2.00;99.90;;;;;;4937952;29;20071;-66
2021/12/26 04:07:09;;;;;;;4.78;2.13;;;-2.00;99.90;;;;;;4954949;29;20043;-67
2021/12/26 04:09:35;;;;;;;6.20;2.00;;;-2.00;99.90;;;;;;4954731;29;20035;-66
2021/12/26 04:12:01;;;;;;;2.72;1.77;;;-2.00;99.90;;;;;;4954662;28;20455;-66
2021/12/26 04:14:27;;;;;;;4.70;1.60;;;-2.00;99.90;;;;;;4954952;29;20043;-67
2021/12/26 04:16:52;;;;;;;2.83;1.58;;;-2.00;99.90;;;;;;4954920;29;20050;-66
2021/12/26 04:19:18;;;;;;;4.22;1.75;;;-2.00;99.90;;;;;;4954881;29;20462;-66
2021/12/26 04:21:44;;;;;;;3.55;2.13;;;-2.00;99.90;;;;;;4954798;29;20027;-67
2021/12/26 04:24:10;;;;;;;4.47;1.98;;;-2.00;99.90;;;;;;4954612;29;20031;-67
2021/12/26 04:26:35;;;;;;;3.33;1.85;;;-2.00;99.90;;;;;;4954577;29;20403;-66
2021/12/26 04:29:01;;;;;;;5.50;2.00;;;-2.00;99.90;;;;;;4954927;29;20035;-66
2021/12/26 04:31:27;;;;;;;3.25;1.65;;;-2.00;99.90;;;;;;4954659;29;20028;-67
2021/12/26 04:33:53;;;;;;;5.78;2.00;;;-2.00;99.90;;;;;;4954520;29;20114;-68
2021/12/26 04:36:20;;;;;;;3.53;1.63;;;-2.00;99.90;;;;;;4937552;29;20027;-67
2021/12/26 04:38:46;;;;;;;3.42;1.90;;;-2.00;99.90;;;;;;4954551;29;20063;-65
2021/12/26 04:41:12;;;;;;;4.13;1.67;;;-2.00;99.90;;;;;;4954983;29;20523;-67
2021/12/26 04:43:38;;;;;;;5.97;1.92;;;-2.00;99.90;;;;;;4954769;29;20501;-66
2021/12/26 04:46:06;;;;;;;6.10;2.13;;;-2.00;99.90;;;;;;4954429;29;20046;-67
2021/12/26 04:48:33;;;;;;;2.30;1.77;;;-2.00;99.90;;;;;;4954760;29;20054;-65
2021/12/26 04:50:59;;;;;;;4.38;2.10;;;-2.00;99.90;;;;;;4954673;29;20048;-68
2021/12/26 04:53:25;;;;;;;5.63;2.15;;;-2.00;99.90;;;;;;4954347;29;20039;-65
2021/12/26 04:55:51;;;;;;;4.82;1.73;;;-2.00;99.90;;;;;;4954300;29;20030;-66
2021/12/26 04:58:17;;;;;;;3.60;1.83;;;-2.00;99.90;;;;;;4954316;29;20459;-66
2021/12/26 05:00:42;;;;;;;5.72;1.80;;;-2.00;99.90;;;;;;4954625;29;20060;-66
2021/12/26 05:03:08;;;;;;;5.32;2.17;;;-2.00;99.90;;;;;;4954199;29;20110;-65
2021/12/26 05:05:35;;;;;;;6.82;2.17;;;-1.90;99.90;;;;;;4954133;29;20035;-67
2021/12/26 05:08:01;;;;;;;5.53;2.00;;;-1.90;99.90;;;;;;4954466;29;20043;-66
2021/12/26 05:10:29;;;;;;;3.53;1.70;;;-1.90;99.90;;;;;;4954465;29;20038;-66
2021/12/26 05:12:59;;;;;;;4.63;2.03;;;-1.80;99.90;;;;;;4954288;29;20023;-66
2021/12/26 05:15:25;;;;;;;5.07;2.08;;;-1.80;99.90;;;;;;4954520;29;20122;-68
2021/12/26 05:17:51;;;;;;;6.47;2.15;;;-1.80;99.90;;;;;;4954305;29;20040;-66
2021/12/26 05:20:20;;;;;;;3.33;1.77;;;-1.80;99.90;;;;;;4953857;29;20118;-66
2021/12/26 05:22:50;;;;;;;2.67;1.70;;;-1.80;99.90;;;;;;4954715;28;20036;-65
2021/12/26 05:25:17;;;;;;;5.28;2.00;;;-1.80;99.90;;;;;;4958084;29;20118;-67
2021/12/26 05:27:43;;;;;;;5.10;2.13;;;-1.80;99.90;;;;;;4957872;29;20050;-65
2021/12/26 05:30:12;;;;;;;4.30;2.00;;;-1.80;99.90;;;;;;4957944;29;20079;-65
2021/12/26 05:32:39;;;;;;;4.75;2.35;;;-1.80;99.90;;;;;;4957928;29;20023;-65
2021/12/26 05:35:06;;;;;;;8.10;2.75;;;-1.90;99.90;;;;;;4957606;29;20040;-67
2021/12/26 05:37:32;;;;;;;5.55;2.72;;;-1.90;99.90;;;;;;4957893;29;20035;-66
2021/12/26 05:39:58;;;;;;;5.97;2.33;;;-1.90;99.90;;;;;;4957874;29;20031;-67
2021/12/26 05:42:24;;;;;;;4.72;2.55;;;-1.80;99.90;;;;;;4957895;29;20473;-66
2021/12/26 05:44:50;;;;;;;4.97;2.42;;;-1.90;99.90;;;;;;4956367;29;20446;-67
2021/12/26 05:47:16;;;;;;;6.00;2.65;;;-1.90;99.90;;;;;;4957511;29;20070;-65
2021/12/26 05:49:42;;;;;;;8.90;2.80;;;-1.90;99.90;;;;;;4957598;29;20043;-66
2021/12/26 05:52:08;;;;;;;5.88;2.83;;;-1.90;99.90;;;;;;4957763;29;20020;-65
2021/12/26 05:54:34;;;;;;;4.93;2.40;;;-1.90;99.90;;;;;;4957371;29;20086;-66
2021/12/26 05:57:01;;;;;;;5.95;2.75;;;-1.90;99.90;;;;;;4957436;29;20027;-67
2021/12/26 05:59:27;;;;;;;6.55;2.63;;;-1.90;99.90;;;;;;4957315;28;20055;-65
2021/12/26 06:01:52;;;;;;;6.85;2.92;;;-1.90;99.90;;;;;;4957516;29;20043;-67
2021/12/26 06:04:18;;;;;;;10.10;4.22;;;-1.90;99.90;;;;;;4957512;29;20024;-67
2021/12/26 06:06:44;;;;;;;6.50;2.88;;;-1.90;99.90;;;;;;4940131;29;20086;-67
2021/12/26 06:09:10;;;;;;;8.05;2.47;;;-1.90;99.90;;;;;;4957585;29;20027;-66
2021/12/26 06:11:36;;;;;;;8.90;3.03;;;-1.90;99.90;;;;;;4957158;29;20043;-67
2021/12/26 06:14:02;;;;;;;4.53;2.30;;;-1.90;99.90;;;;;;4957091;29;20039;-65
2021/12/26 06:16:27;;;;;;;5.50;2.78;;;-1.90;99.90;;;;;;4957314;29;20028;-67
2021/12/26 06:18:53;;;;;;;8.15;3.13;;;-1.80;99.90;;;;;;4956747;29;20031;-67
2021/12/26 06:21:19;;;;;;;9.65;3.08;;;-1.80;99.90;;;;;;4957157;29;20031;-66
2021/12/26 06:23:50;;;;;;;8.55;2.78;;;-1.90;99.90;;;;;;4957546;29;20027;-66
2021/12/26 06:26:18;;;;;;;7.60;2.45;;;-1.90;99.90;;;;;;4957192;29;20039;-67
2021/12/26 06:28:43;;;;;;;5.10;2.50;;;-1.90;99.90;;;;;;4957143;29;20538;-67
2021/12/26 06:31:09;;;;;;;5.28;2.38;;;-1.90;99.90;;;;;;4956565;29;20035;-66
2021/12/26 06:33:35;;;;;;;9.50;2.58;;;-1.90;99.90;;;;;;4956685;28;20034;-68
2021/12/26 06:36:01;;;;;;;4.40;2.17;;;-1.80;99.90;;;;;;4956919;29;20045;-66
2021/12/26 06:38:27;;;;;;;9.00;2.60;;;-1.80;99.90;;;;;;4956925;29;20448;-66
2021/12/26 06:40:53;;;;;;;7.32;2.47;;;-1.90;99.90;;;;;;4956674;29;20035;-67
2021/12/26 06:43:18;;;;;;;8.13;2.75;;;-1.90;99.90;;;;;;4956938;29;20054;-67
2021/12/26 06:45:45;;;;;;;7.57;2.88;;;-1.90;99.90;;;;;;4956288;29;20078;-67
2021/12/26 06:48:10;;;;;;;8.10;2.90;;;-1.80;99.90;;;;;;4956612;29;20019;-67
2021/12/26 06:50:36;;;;;;;5.55;2.78;;;-1.90;99.90;;;;;;4956580;29;20436;-67
2021/12/26 06:53:03;;;;;;;6.47;2.20;;;-1.80;99.90;;;;;;4956797;29;20371;-67
2021/12/26 06:55:29;;;;;;;6.60;2.45;;;-1.90;99.90;;;;;;4956435;29;20046;-67
2021/12/26 06:57:55;;;;;;;4.32;2.40;;;-1.90;99.90;;;;;;4956424;29;20043;-67
2021/12/26 07:00:20;;;;;;;5.72;2.70;;;-1.90;99.90;;;;;;4955016;29;20392;-67
2021/12/26 07:02:48;;;;;;;9.18;3.28;;;-1.90;99.90;;;;;;4956514;29;20163;-66
2021/12/26 07:05:14;;;;;;;7.47;2.58;;;-1.90;99.90;;;;;;4956553;29;20035;-66
2021/12/26 07:07:41;;;;;;;5.93;2.47;;;-1.90;99.90;;;;;;4956175;29;20515;-67
2021/12/26 07:10:08;;;;;;;6.22;2.28;;;-1.90;99.90;;;;;;4956114;29;20035;-65
2021/12/26 07:12:34;;;;;;;6.93;2.45;;;-1.90;99.90;;;;;;4956348;29;20160;-66
2021/12/26 07:14:59;;;;;;;7.47;2.70;;;-1.90;99.90;;;;;;4956122;29;20104;-67
2021/12/26 07:17:25;;;;;;;5.97;2.58;;;-1.90;99.90;;;;;;4956419;29;20037;-68
2021/12/26 07:19:52;;;;;;;7.13;2.90;;;-1.90;99.90;;;;;;4938601;29;20071;-67
2021/12/26 07:22:17;;;;;;;6.93;2.35;;;-1.90;99.90;;;;;;4938762;29;20031;-67
2021/12/26 07:24:46;;;;;;;6.68;2.50;;;-1.90;99.90;;;;;;4956053;29;20038;-66
2021/12/26 07:27:12;;;;;;;7.07;2.60;;;-1.90;99.90;;;;;;4955957;29;20465;-68
2021/12/26 07:29:38;;;;;;;7.13;2.85;;;-1.90;99.90;;;;;;4955906;29;20106;-67
2021/12/26 07:32:05;;;;;;;5.18;2.10;;;-1.90;99.90;;;;;;4956115;29;20106;-68
2021/12/26 07:34:31;;;;;;;8.38;2.00;;;-1.90;99.90;;;;;;4955872;29;20043;-67
2021/12/26 07:36:56;;;;;;;4.45;2.40;;;-1.90;99.90;;;;;;4955921;29;20089;-66
2021/12/26 07:39:22;;;;;;;6.38;2.03;;;-1.90;99.90;;;;;;4955897;29;20027;-67
2021/12/26 07:41:48;;;;;;;4.22;2.63;;;-1.90;99.90;;;;;;4955745;29;20031;-68
2021/12/26 07:44:13;;;;;;;3.35;2.10;;;-1.90;99.90;;;;;;4955378;29;20062;-67
2021/12/26 07:46:39;;;;;;;3.53;2.03;;;-1.90;99.90;;;;;;4955019;28;20043;-66
2021/12/26 07:49:05;;;;;;;4.70;2.58;;;-1.90;99.90;;;;;;4955610;29;20036;-66
2021/12/26 07:51:30;;;;;;;5.13;2.33;;;-1.90;99.90;;;;;;4955415;29;20417;-68
2021/12/26 07:54:00;;;;;;;6.30;2.35;;;-1.90;99.90;;;;;;4955531;29;20028;-68
2021/12/26 07:56:26;;;;;;;8.32;2.55;;;-1.90;99.90;;;;;;4955042;29;20074;-67
2021/12/26 07:58:51;;;;;;;7.40;2.10;;;-1.90;99.90;;;;;;4954861;28;20027;-67
2021/12/26 08:01:17;;;;;;;5.20;2.53;;;-1.80;99.90;;;;;;4937954;29;20039;-67
2021/12/26 08:03:43;;;;;;;6.65;2.50;;;-1.80;99.90;;;;;;4955097;29;20395;-65
2021/12/26 08:06:13;;;;;;;6.90;2.33;;;-1.80;99.90;;;;;;4955131;29;20133;-68
2021/12/26 08:08:38;;;;;;;6.55;2.50;;;-1.80;99.90;;;;;;4954980;29;20076;-66
2021/12/26 08:11:04;;;;;;;7.07;2.42;;;-1.80;99.90;;;;;;4937678;29;20424;-67
2021/12/26 08:13:31;;;;;;;7.20;2.42;;;-1.80;99.90;;;;;;4954958;29;20027;-65
2021/12/26 08:15:57;;;;;;;6.15;2.80;;;-1.80;99.90;;;;;;4955106;29;20024;-66
2021/12/26 08:18:22;;;;;;;5.32;2.42;;;-1.80;99.90;;;;;;4954962;29;20487;-66
2021/12/26 08:20:48;;;;;;;4.85;2.38;;;-1.70;99.90;;;;;;4953597;29;20551;-67
2021/12/26 08:23:14;;;;;;;3.45;2.20;;;-1.70;99.90;;;;;;4955212;29;20027;-67
2021/12/26 08:25:39;;;;;;;6.55;2.88;;;-1.70;99.90;;;;;;4954712;29;20031;-66
2021/12/26 08:28:05;;;;;;;7.60;3.13;;;-1.70;99.90;;;;;;4937523;29;20039;-66
2021/12/26 08:30:31;;;;;;;7.50;2.80;;;-1.70;99.90;;;;;;4954977;29;20086;-67
2021/12/26 08:33:03;;;;;;;7.07;2.70;;;-1.70;99.90;;;;;;4954812;29;20027;-66
2021/12/26 08:35:29;;;;;;;5.68;2.50;;;-1.70;99.90;;;;;;4954681;29;20115;-67
2021/12/26 08:37:55;;;;;;;3.95;2.20;;;-1.60;99.90;;;;;;4954533;29;20114;-67
2021/12/26 08:40:20;;;;;;;10.80;3.25;;;-1.60;99.90;;;;;;4954553;29;20070;-67
2021/12/26 08:42:46;;;;;;;4.82;2.35;;;-1.60;99.90;;;;;;4954252;29;20054;-66
2021/12/26 08:45:12;;;;;;;5.57;2.38;;;-1.60;99.90;;;;;;4954298;29;20503;-66
2021/12/26 08:47:38;;;;;;;6.28;2.65;;;-1.50;99.90;;;;;;4954440;29;20070;-67
2021/12/26 08:50:05;;;;;;;9.98;2.90;;;-1.50;99.90;;;;;;4954502;29;20039;-67
2021/12/26 08:52:31;;;;;;;4.13;2.47;;;-1.50;99.90;;;;;;4954673;29;20027;-66
2021/12/26 08:54:56;;;;;;;5.50;2.38;;;-1.40;99.90;;;;;;4954864;29;20038;-66
2021/12/26 08:57:22;;;;;;;7.40;2.33;;;-1.40;99.90;;;;;;4954383;28;20090;-66
2021/12/26 08:59:47;;;;;;;8.40;2.92;;;-1.30;99.90;;;;;;4954633;29;20051;-66
2021/12/26 09:02:13;;;;;;;4.63;2.55;;;-1.30;99.90;;;;;;4954323;29;20032;-67
2021/12/26 09:04:39;;;;;;;6.35;2.83;;;-1.20;99.90;;;;;;4954520;29;20431;-67
2021/12/26 09:07:07;;;;;;;6.35;3.03;;;-1.20;99.90;;;;;;4954113;29;20035;-67
2021/12/26 09:09:33;;;;;;;6.68;2.53;;;-1.20;99.90;;;;;;4954307;29;20039;-66
2021/12/26 09:12:00;;;;;;;5.75;2.50;;;-1.20;99.90;;;;;;4954004;29;20174;-67
2021/12/26 09:14:28;;;;;;;7.05;2.83;;;-1.10;99.90;;;;;;4954024;29;20027;-66
2021/12/26 09:16:54;;;;;;;4.57;2.60;;;-1.00;99.90;;;;;;4954264;29;20039;-67
2021/12/26 09:19:20;;;;;;;6.18;2.65;;;-1.00;99.90;;;;;;4954302;29;20042;-66
2021/12/26 09:21:45;;;;;;;5.25;2.30;;;-0.90;99.90;;;;;;4954261;29;20031;-68
2021/12/26 09:24:11;;;;;;;7.97;2.72;;;-0.90;99.90;;;;;;4954070;29;20470;-66
2021/12/26 09:26:36;;;;;;;5.20;2.60;;;-0.80;99.90;;;;;;4954011;29;20102;-67
2021/12/26 09:29:02;;;;;;;8.00;2.67;;;-0.80;99.90;;;;;;4954126;29;20485;-66
2021/12/26 09:31:28;;;;;;;6.55;3.10;;;-0.70;99.90;;;;;;4954346;29;20094;-66
2021/12/26 09:33:54;;;;;;;5.07;2.85;;;-0.70;99.90;;;;;;4946965;28;20087;-66
2021/12/26 09:36:19;;;;;;;7.07;2.90;;;-0.60;99.90;;;;;;4934561;29;20452;-66
2021/12/26 09:38:45;;;;;;;9.60;3.00;;;-0.50;99.90;;;;;;4932939;29;20059;-67
2021/12/26 09:41:11;;;;;;;8.48;2.90;;;-0.50;99.90;;;;;;4934717;28;20519;-66
2021/12/26 09:43:38;;;;;;;8.23;3.22;;;-0.40;99.90;;;;;;4934514;29;20457;-65
2021/12/26 09:46:04;;;;;;;5.13;2.60;;;-0.30;99.90;;;;;;4934523;28;20027;-67
2021/12/26 09:48:29;;;;;;;7.20;2.75;;;-0.30;99.90;;;;;;4949401;29;20039;-66
2021/12/26 09:50:55;;;;;;;7.65;2.83;;;-0.20;99.90;;;;;;4934499;28;20468;-67
2021/12/26 09:53:20;;;;;;;7.25;2.95;;;-0.10;99.90;;;;;;4934257;29;20075;-65
2021/12/26 09:55:46;;;;;;;5.05;3.03;;;0.00;99.90;;;;;;4934854;28;20138;-65
2021/12/26 09:58:13;;;;;;;6.90;3.20;;;0.10;99.90;;;;;;4934975;29;20032;-66
2021/12/26 10:00:43;;;;;;;7.13;2.97;;;0.30;99.90;;;;;;4934685;28;20511;-66
2021/12/26 10:03:20;;;;;;;7.10;3.30;;;0.40;99.90;;;;;;4934731;29;20108;-66
2021/12/26 10:06:13;;;;;;;7.22;2.65;;;0.60;99.90;;;;;;4934450;28;20035;-66
2021/12/26 10:08:54;;;;;;;5.70;3.05;;;0.80;99.90;;;;;;4934832;29;20036;-66
2021/12/26 10:11:22;;;;;;;5.88;2.60;;;1.00;99.90;;;;;;4937796;28;20040;-66
2021/12/26 10:14:08;;;;;;;7.15;2.97;;;1.00;99.90;;;;;;4937511;29;20039;-66
2021/12/26 10:16:46;;;;;;;11.40;3.45;;;1.00;99.90;;;;;;4938536;28;20118;-68
2021/12/26 10:19:13;;;;;;;8.57;3.50;;;1.00;99.90;;;;;;4955339;28;20408;-67
2021/12/26 10:21:56;;;;;;;9.02;3.50;;;0.90;99.90;;;;;;4960248;28;20066;-66
2021/12/26 10:24:32;;;;;;;6.32;2.63;;;0.90;99.90;;;;;;4956368;28;20149;-67
2021/12/26 10:27:10;;;;;;;7.57;3.13;;;0.90;99.90;;;;;;4937768;29;20040;-67
2021/12/26 10:29:50;;;;;;;6.57;3.45;;;1.00;99.90;;;;;;4937922;28;20039;-66
2021/12/26 10:32:32;;;;;;;6.47;3.22;;;1.00;99.90;;;;;;4942744;28;20023;-66
2021/12/26 10:34:59;;;;;;;10.63;3.42;;;1.10;99.90;;;;;;4938169;28;20027;-66
2021/12/26 10:37:32;;;;;;;9.18;3.28;;;1.30;99.90;;;;;;4937303;29;20480;-67
2021/12/26 10:40:12;;;;;;;5.22;3.17;;;1.80;99.90;;;;;;4937578;28;20092;-67
2021/12/26 10:42:43;;;;;;;11.10;3.92;;;2.30;99.90;;;;;;4937328;29;20063;-67
2021/12/26 10:45:15;;;;;;;5.25;2.80;;;2.90;99.90;;;;;;4937201;28;20032;-68
2021/12/26 10:47:44;;;;;;;9.38;3.38;;;3.40;99.90;;;;;;4937319;29;20047;-68
2021/12/26 10:50:18;;;;;;;9.55;3.58;;;3.70;99.90;;;;;;4951615;28;20061;-68
2021/12/26 10:53:12;;;;;;;9.45;3.40;;;4.00;99.90;;;;;;4975775;28;20030;-68
2021/12/26 10:55:41;;;;;;;6.47;2.83;;;4.30;99.90;;;;;;4973311;28;20505;-67
2021/12/26 10:58:09;;;;;;;7.38;3.17;;;4.50;99.90;;;;;;4970816;28;20105;-67
2021/12/26 11:00:41;;;;;;;7.15;3.15;;;4.70;99.70;;;;;;4956248;28;20198;-67
2021/12/26 11:03:12;;;;;;;6.28;3.10;;;4.90;99.50;;;;;;4952180;28;20584;-68
2021/12/26 11:05:46;;;;;;;9.40;3.40;;;5.00;98.50;;;;;;4937098;29;20038;-68
2021/12/26 11:08:14;;;;;;;6.55;2.92;;;5.20;98.80;;;;;;4936763;28;20040;-67
2021/12/26 11:10:44;;;;;;;6.35;2.75;;;5.40;98.60;;;;;;4935592;29;20043;-69
2021/12/26 11:13:23;;;;;;;6.93;3.35;;;5.50;98.00;;;;;;4936669;29;20459;-67
2021/12/26 11:15:53;;;;;;;8.35;3.47;;;5.60;97.60;;;;;;4936740;29;20355;-68
2021/12/26 11:18:19;;;;;;;5.88;3.00;;;5.60;97.40;;;;;;4937065;29;20028;-68
2021/12/26 11:20:47;;;;;;;8.60;3.55;;;5.70;97.50;;;;;;4949259;28;20046;-68
2021/12/26 11:23:18;;;;;;;7.57;3.58;;;5.70;97.30;;;;;;4942740;28;20122;-68
2021/12/26 11:25:57;;;;;;;11.77;4.05;;;5.70;97.00;;;;;;4973543;28;20049;-67
2021/12/26 11:28:28;;;;;;;7.20;3.25;;;5.70;97.10;;;;;;4941128;28;20040;-67
2021/12/26 11:30:57;;;;;;;9.50;3.33;;;5.70;97.10;;;;;;4936606;29;20028;-67
2021/12/26 11:33:23;;;;;;;6.50;3.45;;;5.50;97.60;;;;;;4935361;28;20269;-68
2021/12/26 11:35:50;;;;;;;8.35;3.75;;;5.30;97.70;;;;;;4936574;29;20140;-68
2021/12/26 11:38:20;;;;;;;7.25;3.88;;;5.30;97.90;;;;;;4936635;28;20134;-69
2021/12/26 11:40:48;;;;;;;8.50;3.60;;;5.30;98.10;;;;;;4936183;29;20424;-69
2021/12/26 11:43:26;;;;;;;7.68;3.30;;;5.40;98.20;;;;;;4936113;29;20398;-69
2021/12/26 11:46:16;;;;;;;7.60;3.22;;;5.30;97.60;;;;;;4936131;29;20031;-69
2021/12/26 11:49:18;;;;;;;6.72;3.45;;;5.20;98.20;;;;;;4935030;29;20035;-70
2021/12/26 11:52:13;;;;;;;6.67;3.40;;;5.10;98.60;;;;;;4936222;29;20059;-69
2021/12/26 11:55:01;;;;;;;7.63;3.83;;;5.00;98.90;;;;;;4935974;29;20810;-69
2021/12/26 11:57:39;;;;;;;6.95;3.50;;;4.80;98.90;;;;;;4947585;28;20046;-69
2021/12/26 12:00:14;;;;;;;6.82;3.58;;;4.50;99.30;;;;;;4955089;28;20056;-69
2021/12/26 12:02:47;;;;;;;10.20;4.00;;;4.40;99.90;;;;;;4955813;28;20032;-69
2021/12/26 12:05:18;;;;;;;9.32;3.60;;;4.20;99.90;;;;;;4955787;28;20050;-69
2021/12/26 12:07:45;;;;;;;7.65;3.65;;;4.10;99.90;;;;;;4955408;28;20065;-69
2021/12/26 12:10:29;;;;;;;8.18;4.18;;;4.00;99.90;;;;;;4955183;28;20033;-69
2021/12/26 12:12:55;;;;;;;6.50;3.25;;;3.90;99.90;;;;;;4954613;28;20042;-70
2021/12/26 12:15:43;;;;;;;7.55;3.08;;;3.80;99.90;;;;;;4950899;28;20027;-69
2021/12/26 12:18:13;;;;;;;9.52;3.58;;;3.70;99.90;;;;;;4966183;28;20035;-70
2021/12/26 12:20:38;;;;;;;8.82;3.65;;;3.50;99.90;;;;;;4974478;28;20030;-69
2021/12/26 12:23:04;;;;;;;8.82;3.90;;;3.40;99.90;;;;;;4938879;28;20034;-70
2021/12/26 12:25:36;;;;;;;9.23;3.67;;;3.30;99.90;;;;;;4939503;28;20028;-70
2021/12/26 12:28:13;;;;;;;10.32;3.97;;;3.30;99.90;;;;;;4935526;29;20122;-70
2021/12/26 12:30:45;;;;;;;8.65;3.72;;;3.20;99.90;;;;;;4935532;29;20035;-70
2021/12/26 12:33:25;;;;;;;9.15;4.22;;;3.20;99.90;;;;;;4935163;29;20059;-70
2021/12/26 12:35:59;;;;;;;8.65;3.90;;;3.30;99.90;;;;;;4935427;29;20023;-71
2021/12/26 12:38:44;;;;;;;8.68;3.75;;;3.20;99.90;;;;;;4934290;29;20028;-70
2021/12/26 12:41:28;;;;;;;12.27;4.35;;;3.30;99.90;;;;;;4935616;29;20035;-72
2021/12/26 12:43:57;;;;;;;9.15;3.70;;;3.30;99.90;;;;;;4935496;29;20041;-73
2021/12/26 12:46:22;;;;;;;9.00;3.92;;;3.30;99.90;;;;;;4935285;29;20039;-72
2021/12/26 12:49:06;;;;;;;6.97;3.38;;;3.30;99.90;;;;;;4935407;29;20031;-73
2021/12/26 12:51:43;;;;;;;8.27;4.10;;;3.40;99.90;;;;;;4935345;29;20036;-71
2021/12/26 12:54:23;;;;;;;7.90;4.13;;;3.30;99.90;;;;;;4935321;29;20034;-72
2021/12/26 12:56:49;;;;;;;14.55;4.38;;;3.30;99.90;;;;;;4935442;29;20078;-71
2021/12/26 12:59:20;;;;;;;8.85;4.18;;;3.30;99.90;;;;;;4935242;29;20043;-72
2021/12/26 13:01:55;;;;;;;11.25;4.22;;;3.30;99.90;;;;;;4935794;29;20062;-73